createdAt,value
2022-10-16T00:03:09.352Z,0.78
2022-10-16T00:07:09.172Z,0.78
2022-10-16T00:11:09.440Z,0.78
2022-10-16T00:15:09.451Z,0.01
2022-10-16T00:19:09.392Z,0.01
2022-10-16T00:23:09.902Z,0.78
2022-10-16T00:27:09.725Z,0.01
2022-10-16T00:31:09.439Z,0.01
2022-10-16T00:35:09.548Z,0.78
2022-10-16T00:39:09.043Z,0.78
2022-10-16T00:43:10.005Z,0.78
2022-10-16T00:47:09.669Z,0.01
2022-10-16T00:51:09.594Z,0.01
2022-10-16T00:55:09.497Z,0.78
2022-10-16T00:59:09.675Z,0.78
2022-10-16T01:03:09.559Z,0.01
2022-10-16T01:07:08.811Z,0.79
2022-10-16T01:11:09.059Z,0.79
2022-10-16T01:15:09.336Z,0.79
2022-10-16T01:19:08.826Z,0.01
2022-10-16T01:23:09.863Z,0.01
2022-10-16T01:27:09.528Z,0.8
2022-10-16T01:31:08.837Z,0.01
2022-10-16T01:35:08.868Z,0.01
2022-10-16T01:39:08.826Z,0.01
2022-10-16T01:43:09.658Z,0.8
2022-10-16T01:47:09.516Z,0.01
2022-10-16T01:51:09.328Z,0.01
2022-10-16T01:55:08.751Z,0.01
2022-10-16T01:59:08.759Z,0.01
2022-10-16T02:03:09.896Z,0.8
2022-10-16T02:07:09.414Z,0.01
2022-10-16T02:11:09.823Z,0.01
2022-10-16T02:15:08.838Z,0.8
2022-10-16T02:19:09.322Z,0.01
2022-10-16T02:23:09.463Z,0.01
2022-10-16T02:27:09.121Z,0.8
2022-10-16T02:31:09.529Z,0.8
2022-10-16T02:35:09.337Z,0.8
2022-10-16T02:39:09.123Z,0.01
2022-10-16T02:43:09.921Z,0.01
2022-10-16T02:47:09.334Z,0.8
2022-10-16T02:51:09.249Z,0.8
2022-10-16T02:55:08.905Z,0.01
2022-10-16T02:59:09.338Z,0.01
2022-10-16T03:03:08.820Z,0.01
2022-10-16T03:07:08.927Z,0.01
2022-10-16T03:11:09.719Z,0.01
2022-10-16T03:15:08.982Z,0.01
2022-10-16T03:19:09.235Z,0.01
2022-10-16T03:23:09.287Z,0.01
2022-10-16T03:27:09.670Z,0.01
2022-10-16T03:31:08.810Z,0.01
2022-10-16T03:35:08.782Z,0.01
2022-10-16T03:39:09.297Z,0.01
2022-10-16T03:43:09.153Z,0.01
2022-10-16T03:47:08.848Z,0.01
2022-10-16T03:51:09.584Z,0.01
2022-10-16T03:55:09.365Z,0.01
2022-10-16T03:59:09.231Z,0.01
2022-10-16T04:03:09.832Z,0.01
2022-10-16T04:07:09.577Z,0.01
2022-10-16T04:11:09.472Z,0.01
2022-10-16T04:15:09.710Z,0.01
2022-10-16T04:19:08.848Z,0.01
2022-10-16T04:23:09.230Z,0.04
2022-10-16T04:27:09.659Z,0.05
2022-10-16T04:31:08.902Z,0.05
2022-10-16T04:35:09.650Z,0.05
2022-10-16T04:39:08.903Z,0.05
2022-10-16T04:43:08.859Z,0.05
2022-10-16T04:47:08.878Z,0.05
2022-10-16T04:51:12.952Z,0.05
2022-10-16T04:55:09.644Z,0.05
2022-10-16T04:59:08.920Z,0.05
2022-10-16T05:03:09.583Z,0.05
2022-10-16T05:07:09.033Z,0.05
2022-10-16T05:11:09.360Z,0.05
2022-10-16T05:15:09.811Z,0.05
2022-10-16T05:19:37.398Z,0.05
2022-10-16T05:23:09.206Z,0.05
2022-10-16T05:27:09.046Z,0.05
2022-10-16T05:31:09.415Z,0.05
2022-10-16T05:35:11.831Z,0.05
2022-10-16T05:39:09.255Z,0.05
2022-10-16T05:43:09.610Z,0.05
2022-10-16T05:47:09.504Z,0.05
2022-10-16T05:51:09.625Z,0.05
2022-10-16T05:55:09.109Z,0.05
2022-10-16T05:59:09.695Z,0.05
2022-10-16T06:03:09.056Z,0.05
2022-10-16T06:07:09.523Z,0.05
2022-10-16T06:11:09.568Z,0.05
2022-10-16T06:15:09.561Z,0.05
2022-10-16T06:19:09.402Z,0.05
2022-10-16T06:23:08.946Z,0.05
2022-10-16T06:27:08.763Z,0.05
2022-10-16T06:31:08.803Z,10.21
2022-10-16T06:35:09.166Z,10.21
2022-10-16T06:39:09.657Z,10.21
2022-10-16T06:43:09.315Z,10.21
2022-10-16T06:47:09.626Z,10.21
2022-10-16T06:51:09.169Z,10.21
2022-10-16T06:55:16.501Z,10.21
2022-10-16T06:59:09.059Z,10.21
2022-10-16T07:03:10.647Z,10.21
2022-10-16T07:07:09.636Z,10.21
2022-10-16T07:11:09.742Z,10.21
2022-10-16T07:15:08.973Z,10.21
2022-10-16T07:19:09.628Z,10.21
2022-10-16T07:23:09.703Z,10.21
2022-10-16T07:27:09.503Z,10.21
2022-10-16T07:31:13.978Z,10.21
2022-10-16T07:35:09.009Z,10.21
2022-10-16T07:39:11.744Z,10.21
2022-10-16T07:43:09.469Z,10.21
2022-10-16T07:47:13.773Z,10.21
2022-10-16T07:51:08.840Z,10.21
2022-10-16T07:55:09.467Z,10.21
2022-10-16T07:59:09.356Z,10.21
2022-10-16T08:03:09.717Z,10.21
2022-10-16T08:07:13.240Z,10.21
2022-10-16T08:11:09.242Z,10.21
2022-10-16T08:15:10.365Z,10.21
2022-10-16T08:19:09.069Z,10.21
2022-10-16T08:23:08.934Z,10.21
2022-10-16T08:27:09.099Z,10.21
2022-10-16T08:31:09.632Z,10.21
2022-10-16T08:35:09.032Z,10.21
2022-10-16T08:39:09.352Z,0.14
2022-10-16T08:43:10.259Z,0.14
2022-10-16T08:47:13.331Z,3.49
2022-10-16T08:51:09.361Z,2.09
2022-10-16T08:55:09.387Z,2.09
2022-10-16T08:59:14.203Z,0.02
2022-10-16T09:03:09.512Z,1.44
2022-10-16T09:07:09.351Z,1.44
2022-10-16T09:11:09.629Z,0.01
2022-10-16T09:15:09.311Z,1.19
2022-10-16T09:19:11.374Z,1.19
2022-10-16T09:23:08.854Z,1.13
2022-10-16T09:27:09.192Z,0.01
2022-10-16T09:31:09.066Z,0.01
2022-10-16T09:35:09.301Z,0.01
2022-10-16T09:39:09.539Z,1
2022-10-16T09:43:08.863Z,1
2022-10-16T09:47:09.251Z,0.97
2022-10-16T09:51:09.058Z,0.01
2022-10-16T09:55:09.280Z,0.01
2022-10-16T09:59:08.765Z,0.01
2022-10-16T10:03:09.558Z,0.01
2022-10-16T10:07:09.883Z,0.01
2022-10-16T10:11:11.575Z,0.97
2022-10-16T10:15:08.812Z,0.01
2022-10-16T10:19:09.480Z,0.01
2022-10-16T10:23:09.566Z,0.94
2022-10-16T10:27:14.272Z,0.01
2022-10-16T10:31:08.808Z,0.01
2022-10-16T10:35:09.523Z,0.93
2022-10-16T10:39:09.287Z,0.01
2022-10-16T10:43:10.038Z,0.01
2022-10-16T10:47:09.557Z,0.01
2022-10-16T10:51:09.577Z,0.01
2022-10-16T10:55:09.000Z,0.01
2022-10-16T10:59:10.025Z,0.01
2022-10-16T11:03:10.688Z,0.01
2022-10-16T11:07:09.698Z,0.01
2022-10-16T11:11:09.852Z,0.01
2022-10-16T11:15:09.646Z,0.01
2022-10-16T11:19:09.386Z,0.01
2022-10-16T11:23:09.263Z,0.01
2022-10-16T11:27:09.270Z,0.88
2022-10-16T11:31:09.049Z,0.88
2022-10-16T11:35:11.762Z,0.88
2022-10-16T11:39:09.374Z,0.01
2022-10-16T11:48:17.456Z,0.01
2022-10-16T11:51:09.561Z,0.01
2022-10-16T11:55:09.496Z,0.01
2022-10-16T11:59:09.157Z,0.01
2022-10-16T12:03:09.232Z,0.01
2022-10-16T12:07:09.179Z,0.01
2022-10-16T12:11:12.732Z,0.01
2022-10-16T12:16:09.797Z,0.01
2022-10-16T12:19:09.070Z,0.01
2022-10-16T12:23:14.608Z,0.01
2022-10-16T12:27:09.441Z,0.01
2022-10-16T12:31:09.940Z,0.01
2022-10-16T12:35:09.431Z,0.01
2022-10-16T12:39:09.612Z,0.88
2022-10-16T12:43:09.621Z,0.88
2022-10-16T12:47:09.345Z,0.01
2022-10-16T12:51:16.640Z,0.01
2022-10-16T12:55:09.764Z,0.01
2022-10-16T12:59:08.943Z,0.01
2022-10-16T13:03:11.688Z,0.01
2022-10-16T13:07:09.298Z,0.01
2022-10-16T13:11:09.527Z,0.01
2022-10-16T13:15:08.951Z,0.93
2022-10-16T13:19:09.584Z,0.93
2022-10-16T13:23:09.115Z,0.01
2022-10-16T13:27:09.534Z,0.01
2022-10-16T13:31:15.917Z,0.01
2022-10-16T13:35:09.622Z,0.01
2022-10-16T13:39:09.396Z,0.95
2022-10-16T13:43:19.179Z,0.95
2022-10-16T13:47:09.756Z,0.01
2022-10-16T13:51:08.993Z,0.01
2022-10-16T13:55:13.663Z,0.01
2022-10-16T13:59:09.316Z,0.01
2022-10-16T14:03:09.379Z,0.94
2022-10-16T14:07:09.222Z,0.94
2022-10-16T14:11:09.733Z,0.01
2022-10-16T14:15:08.950Z,0.01
2022-10-16T14:19:10.222Z,0.01
2022-10-16T14:23:10.050Z,0.93
2022-10-16T14:27:13.658Z,0.01
2022-10-16T14:31:10.026Z,0.01
2022-10-16T14:35:09.233Z,0.01
2022-10-16T14:39:09.772Z,0.01
2022-10-16T14:43:08.780Z,0.01
2022-10-16T14:47:09.924Z,0.92
2022-10-16T14:51:09.204Z,0.01
2022-10-16T14:55:08.833Z,0.01
2022-10-16T14:59:09.067Z,0.01
2022-10-16T15:03:09.469Z,0.01
2022-10-16T15:07:09.211Z,0.01
2022-10-16T15:11:08.954Z,0.01
2022-10-16T15:15:09.204Z,0.9
2022-10-16T15:19:08.731Z,0.9
2022-10-16T15:23:08.920Z,0.01
2022-10-16T15:27:09.622Z,0.01
2022-10-16T15:31:09.184Z,0.01
2022-10-16T15:35:09.303Z,0.01
2022-10-16T15:39:09.149Z,0.01
2022-10-16T15:43:10.185Z,0.01
2022-10-16T15:47:09.690Z,0.88
2022-10-16T15:51:09.910Z,0.01
2022-10-16T15:55:16.724Z,0.01
2022-10-16T15:59:08.909Z,0.88
2022-10-16T16:03:10.662Z,0.01
2022-10-16T16:07:09.485Z,0.01
2022-10-16T16:11:08.948Z,0.01
2022-10-16T16:15:14.766Z,0.86
2022-10-16T16:19:11.611Z,0.86
2022-10-16T16:23:09.826Z,0.86
2022-10-16T16:27:09.522Z,0.86
2022-10-16T16:31:16.143Z,0.86
2022-10-16T16:35:09.429Z,0.01
2022-10-16T16:39:10.483Z,0.01
2022-10-16T16:43:09.726Z,0.01
2022-10-16T16:47:09.648Z,0.01
2022-10-16T16:51:09.322Z,0.01
2022-10-16T16:55:09.646Z,0.01
2022-10-16T16:59:09.809Z,0.01
2022-10-16T17:03:09.134Z,0.84
2022-10-16T17:07:09.736Z,0.84
2022-10-16T17:11:09.506Z,0.84
2022-10-16T17:15:10.806Z,0.83
2022-10-16T17:19:10.949Z,0.83
2022-10-16T17:23:14.292Z,0.01
2022-10-16T17:27:12.620Z,0.01
2022-10-16T17:35:09.088Z,0.01
2022-10-16T17:39:09.115Z,0.01
2022-10-16T17:43:09.636Z,0.01
2022-10-16T17:47:14.807Z,0.01
2022-10-16T17:51:12.241Z,0.82
2022-10-16T17:55:09.251Z,0.82
2022-10-16T17:59:13.963Z,0.82
2022-10-16T18:03:10.065Z,0.01
2022-10-16T18:07:09.764Z,0.01
2022-10-16T18:11:19.669Z,0.82
2022-10-16T18:15:09.438Z,0.82
2022-10-16T18:19:14.607Z,0.82
2022-10-16T18:23:09.763Z,0.01
2022-10-16T18:27:08.858Z,0.82
2022-10-16T18:31:09.166Z,0.82
2022-10-16T18:35:09.360Z,0.82
2022-10-16T18:39:08.918Z,0.01
2022-10-16T18:43:09.732Z,0.01
2022-10-16T18:47:09.002Z,0.01
2022-10-16T18:51:09.349Z,0.01
2022-10-16T18:55:08.886Z,0.01
2022-10-16T18:59:08.960Z,0.82
2022-10-16T19:03:09.768Z,0.01
2022-10-16T19:07:09.618Z,0.01
2022-10-16T19:11:09.469Z,0.01
2022-10-16T19:15:09.602Z,0.01
2022-10-16T19:19:12.088Z,0.01
2022-10-16T19:23:10.103Z,0.01
2022-10-16T19:27:14.769Z,0.01
2022-10-16T19:31:09.156Z,0.01
2022-10-16T19:35:09.648Z,0.01
2022-10-16T19:39:08.977Z,0.01
2022-10-16T19:43:09.287Z,0.01
2022-10-16T19:47:09.509Z,0.01
2022-10-16T19:51:09.370Z,0.01
2022-10-16T19:55:08.964Z,0.01
2022-10-16T19:59:09.402Z,0.01
2022-10-16T20:03:10.107Z,0.01
2022-10-16T20:07:09.208Z,0.01
2022-10-16T20:11:08.993Z,0.01
2022-10-16T20:15:09.335Z,0.01
2022-10-16T20:19:09.218Z,0.01
2022-10-16T20:23:09.756Z,0.01
2022-10-16T20:27:11.945Z,0.01
2022-10-16T20:31:09.717Z,0.01
2022-10-16T20:35:09.514Z,0.01
2022-10-16T20:39:08.753Z,0.01
2022-10-16T20:43:08.957Z,0.01
2022-10-16T20:47:09.296Z,0.01
2022-10-16T20:51:08.758Z,0.05
2022-10-16T20:55:08.971Z,0.05
2022-10-16T20:59:09.032Z,0.02
2022-10-16T21:03:10.907Z,1.65
2022-10-16T21:07:09.442Z,1.65
2022-10-16T21:11:09.818Z,0.01
2022-10-16T21:15:37.146Z,1.25
2022-10-16T21:19:09.543Z,1.25
2022-10-16T21:23:08.852Z,0.01
2022-10-16T21:27:09.292Z,0.01
2022-10-16T21:31:08.884Z,0.01
2022-10-16T21:35:08.742Z,0.01
2022-10-16T21:39:09.084Z,0.01
2022-10-16T21:43:09.370Z,0.01
2022-10-16T21:47:09.062Z,0.01
2022-10-16T21:51:09.082Z,0.01
2022-10-16T21:55:09.518Z,0.01
2022-10-16T21:59:09.689Z,0.01
2022-10-16T22:03:09.427Z,0.01
2022-10-16T22:07:14.306Z,0.01
2022-10-16T22:11:09.087Z,0.01
2022-10-16T22:15:09.122Z,0.01
2022-10-16T22:19:09.062Z,0.01
2022-10-16T22:23:08.970Z,0.01
2022-10-16T22:27:08.871Z,5.47
2022-10-16T22:31:09.398Z,0.06
2022-10-16T22:35:09.113Z,0.06
2022-10-16T22:39:09.535Z,0.06
2022-10-16T22:43:09.205Z,0.06
2022-10-16T22:47:09.754Z,0.06
2022-10-16T22:51:09.437Z,0.06
2022-10-16T22:55:09.586Z,0.06
2022-10-16T22:59:09.075Z,0.06
2022-10-16T23:03:10.437Z,0.06
2022-10-16T23:07:09.861Z,0.06
2022-10-16T23:11:09.679Z,0.06
2022-10-16T23:15:09.774Z,0.06
2022-10-16T23:23:09.557Z,0.06
2022-10-16T23:27:09.172Z,0.06
2022-10-16T23:31:09.070Z,0.06
2022-10-16T23:35:09.034Z,0.06
2022-10-16T23:39:09.222Z,0.06
2022-10-16T23:43:09.034Z,0.06
2022-10-16T23:47:09.746Z,0.06
2022-10-16T23:51:08.970Z,0.06
2022-10-16T23:55:09.250Z,0.06
2022-10-16T23:59:08.851Z,0.06
